createdAt,value
2023-04-17T00:02:04.786Z,98009.75
2023-04-17T00:04:32.745Z,98003.34
2023-04-17T00:07:03.675Z,98005.41
2023-04-17T00:09:31.588Z,98010.78
2023-04-17T00:11:58.604Z,98012.03
2023-04-17T00:14:25.720Z,98003.09
2023-04-17T00:16:52.839Z,98003.59
2023-04-17T00:19:20.194Z,98001.59
2023-04-17T00:21:47.160Z,97996.44
2023-04-17T00:24:15.439Z,98003.59
2023-04-17T00:26:42.611Z,97997.97
2023-04-17T00:29:09.957Z,98000.28
2023-04-17T00:31:37.677Z,98001.31
2023-04-17T00:34:04.860Z,98000.53
2023-04-17T00:36:32.335Z,97999.78
2023-04-17T00:38:59.748Z,97994.66
2023-04-17T00:41:27.490Z,97990.28
2023-04-17T00:43:55.047Z,97999.25
2023-04-17T00:46:22.612Z,97990.28
2023-04-17T00:48:49.998Z,97999.25
2023-04-17T00:51:17.241Z,97991.31
2023-04-17T00:53:45.301Z,97993.13
2023-04-17T00:56:13.071Z,97990.28
2023-04-17T00:58:40.742Z,97991.31
2023-04-17T01:01:08.289Z,97983.91
2023-04-17T01:03:35.704Z,97990.81
2023-04-17T01:06:04.174Z,97983.38
2023-04-17T01:08:49.941Z,97990.25
2023-04-17T01:11:18.859Z,97986.69
2023-04-17T01:13:50.387Z,97991.03
2023-04-17T01:16:19.643Z,97990.53
2023-04-17T01:18:50.541Z,97986.44
2023-04-17T01:21:18.413Z,97984.16
2023-04-17T01:23:52.351Z,97985.69
2023-04-17T01:26:23.271Z,97986.97
2023-04-17T01:28:52.215Z,97984.41
2023-04-17T01:31:19.718Z,97986.44
2023-04-17T01:33:47.165Z,97995.13
2023-04-17T01:36:14.712Z,97987.72
2023-04-17T01:38:42.021Z,97992.31
2023-04-17T01:41:13.432Z,97995.66
2023-04-17T01:43:46.231Z,98001.78
2023-04-17T01:46:13.966Z,97995.88
2023-04-17T01:48:41.162Z,97999.97
2023-04-17T01:51:10.059Z,97997.41
2023-04-17T01:53:40.220Z,97997.41
2023-04-17T01:56:08.180Z,97988.97
2023-04-17T01:58:35.236Z,97995.13
2023-04-17T02:01:02.374Z,97993.84
2023-04-17T02:03:29.476Z,97995.34
2023-04-17T02:05:56.656Z,97989.22
2023-04-17T02:08:24.133Z,97998.16
2023-04-17T02:10:51.480Z,97998.41
2023-04-17T02:13:18.738Z,97994.84
2023-04-17T02:15:46.111Z,97995.06
2023-04-17T02:18:15.825Z,97991.72
2023-04-17T02:20:42.806Z,97990.97
2023-04-17T02:23:10.071Z,97997.88
2023-04-17T02:25:37.106Z,97998.38
2023-04-17T02:28:05.080Z,98001.19
2023-04-17T02:30:34.349Z,97995.28
2023-04-17T02:33:02.247Z,98000.91
2023-04-17T02:35:31.887Z,98004.00
2023-04-17T02:37:59.184Z,98005.53
2023-04-17T02:40:27.804Z,98011.16
2023-04-17T02:43:01.068Z,98001.69
2023-04-17T02:45:30.284Z,98003.22
2023-04-17T02:47:58.404Z,98003.22
2023-04-17T02:50:25.511Z,98006.28
2023-04-17T02:53:09.194Z,98004.75
2023-04-17T02:55:36.517Z,98003.72
2023-04-17T02:58:03.498Z,98007.53
2023-04-17T03:00:30.585Z,98002.69
2023-04-17T03:02:57.722Z,98001.69
2023-04-17T03:05:24.768Z,98004.25
2023-04-17T03:07:54.206Z,98007.81
2023-04-17T03:10:21.749Z,98008.84
2023-04-17T03:12:51.047Z,98006.81
2023-04-17T03:15:18.154Z,98009.88
2023-04-17T03:17:45.715Z,98007.81
2023-04-17T03:20:12.847Z,98016.25
2023-04-17T03:22:41.955Z,98014.22
2023-04-17T03:25:10.651Z,98012.69
2023-04-17T03:27:48.644Z,98019.84
2023-04-17T03:30:17.974Z,98017.78
2023-04-17T03:32:48.586Z,98014.47
2023-04-17T03:35:15.546Z,98013.72
2023-04-17T03:37:43.116Z,98014.22
2023-04-17T03:40:13.713Z,98016.78
2023-04-17T03:42:44.095Z,98019.34
2023-04-17T03:45:11.432Z,98021.38
2023-04-17T03:47:38.893Z,98019.84
2023-04-17T03:50:07.156Z,98022.91
2023-04-17T03:52:39.584Z,98022.16
2023-04-17T03:55:07.574Z,98030.56
2023-04-17T03:57:34.988Z,98029.00
2023-04-17T04:00:03.142Z,98025.94
2023-04-17T04:02:46.794Z,98030.03
2023-04-17T04:05:18.864Z,98034.88
2023-04-17T04:07:46.723Z,98035.63
2023-04-17T04:10:20.106Z,98034.88
2023-04-17T04:12:48.603Z,98032.31
2023-04-17T04:15:16.948Z,98036.38
2023-04-17T04:17:47.284Z,98033.53
2023-04-17T04:20:14.990Z,98046.03
2023-04-17T04:22:45.072Z,98044.00
2023-04-17T04:25:13.034Z,98051.94
2023-04-17T04:27:50.146Z,98056.25
2023-04-17T04:30:26.025Z,98056.53
2023-04-17T04:33:01.382Z,98049.13
2023-04-17T04:35:30.696Z,98041.22
2023-04-17T04:38:03.158Z,98042.00
2023-04-17T04:40:38.585Z,98048.63
2023-04-17T04:43:07.575Z,98044.56
2023-04-17T04:45:43.169Z,98051.97
2023-04-17T04:48:11.007Z,98045.09
2023-04-17T04:50:38.153Z,98048.66
2023-04-17T04:53:07.449Z,98053.50
2023-04-17T04:55:43.379Z,98055.31
2023-04-17T04:58:11.036Z,98056.56
2023-04-17T05:00:39.658Z,98057.84
2023-04-17T05:03:13.444Z,98061.66
2023-04-17T05:05:42.556Z,98069.06
2023-04-17T05:08:14.204Z,98066.75
2023-04-17T05:10:46.616Z,98074.41
2023-04-17T05:13:16.245Z,98073.13
2023-04-17T05:15:44.437Z,98073.13
2023-04-17T05:18:16.335Z,98074.19
2023-04-17T05:20:45.569Z,98081.59
2023-04-17T05:23:12.640Z,98070.34
2023-04-17T05:25:46.779Z,98082.38
2023-04-17T05:28:16.799Z,98076.75
2023-04-17T05:30:45.080Z,98082.09
2023-04-17T05:33:18.730Z,98095.34
2023-04-17T05:35:50.398Z,98085.41
2023-04-17T05:38:20.558Z,98087.47
2023-04-17T05:40:48.010Z,98084.66
2023-04-17T05:43:16.808Z,98093.31
2023-04-17T05:45:43.768Z,98089.75
2023-04-17T05:48:11.053Z,98087.19
2023-04-17T05:50:39.005Z,98093.28
2023-04-17T05:53:07.515Z,98085.63
2023-04-17T05:55:39.818Z,98090.47
2023-04-17T06:00:44.168Z,98089.94
2023-04-17T06:03:18.524Z,98094.28
2023-04-17T06:05:47.853Z,98079.75
2023-04-17T06:08:16.644Z,98080.00
2023-04-17T06:10:47.835Z,98085.88
2023-04-17T06:13:15.245Z,98084.59
2023-04-17T06:15:45.988Z,98091.28
2023-04-17T06:18:16.521Z,98096.16
2023-04-17T06:20:45.952Z,98095.44
2023-04-17T06:23:13.697Z,98100.03
2023-04-17T06:25:41.375Z,98091.13
2023-04-17T06:28:09.124Z,98093.41
2023-04-17T06:30:38.203Z,98096.75
2023-04-17T06:33:06.777Z,98092.66
2023-04-17T06:35:37.965Z,98096.78
2023-04-17T06:38:31.702Z,98104.94
2023-04-17T06:40:59.364Z,98097.28
2023-04-17T06:43:26.359Z,98102.41
2023-04-17T06:45:54.166Z,98105.22
2023-04-17T06:48:21.356Z,98107.31
2023-04-17T06:50:49.279Z,98105.25
2023-04-17T06:53:16.379Z,98111.91
2023-04-17T06:55:43.507Z,98109.63
2023-04-17T06:58:11.370Z,98116.50
2023-04-17T07:00:38.694Z,98121.13
2023-04-17T07:03:06.803Z,98110.38
2023-04-17T07:05:33.926Z,98119.84
2023-04-17T07:08:01.374Z,98113.97
2023-04-17T07:10:28.320Z,98124.97
2023-04-17T07:12:55.567Z,98126.25
2023-04-17T07:15:22.576Z,98126.78
2023-04-17T07:17:49.620Z,98126.28
2023-04-17T07:20:16.803Z,98127.56
2023-04-17T07:22:43.881Z,98130.41
2023-04-17T07:25:11.658Z,98140.41
2023-04-17T07:27:39.653Z,98134.53
2023-04-17T07:30:08.975Z,98135.06
2023-04-17T07:32:36.458Z,98131.47
2023-04-17T07:35:04.731Z,98133.78
2023-04-17T07:37:31.677Z,98140.69
2023-04-17T07:40:00.054Z,98149.41
2023-04-17T07:42:27.080Z,98142.72
2023-04-17T07:44:54.248Z,98148.34
2023-04-17T07:47:21.906Z,98146.84
2023-04-17T07:49:49.328Z,98146.31
2023-04-17T07:52:18.289Z,98146.84
2023-04-17T07:54:47.098Z,98150.69
2023-04-17T07:57:15.945Z,98145.56
2023-04-17T07:59:43.226Z,98150.97
2023-04-17T08:02:11.768Z,98156.63
2023-04-17T08:04:40.832Z,98158.16
2023-04-17T08:07:10.877Z,98149.97
2023-04-17T08:09:40.612Z,98149.97
2023-04-17T08:12:09.289Z,98151.50
2023-04-17T08:14:36.488Z,98157.13
2023-04-17T08:17:04.478Z,98163.53
2023-04-17T08:19:32.230Z,98157.91
2023-04-17T08:22:05.380Z,98161.78
2023-04-17T08:24:32.384Z,98162.28
2023-04-17T08:26:59.318Z,98160.97
2023-04-17T08:29:28.968Z,98165.34
2023-04-17T08:32:12.704Z,98166.09
2023-04-17T08:34:41.784Z,98177.63
2023-04-17T08:37:08.687Z,98167.91
2023-04-17T08:39:35.688Z,98172.50
2023-04-17T08:42:08.054Z,98178.41
2023-04-17T08:44:36.076Z,98177.38
2023-04-17T08:47:04.891Z,98175.09
2023-04-17T08:49:35.521Z,98165.13
2023-04-17T08:52:04.649Z,98177.41
2023-04-17T08:54:33.714Z,98174.59
2023-04-17T08:57:05.257Z,98179.69
2023-04-17T08:59:33.556Z,98181.25
2023-04-17T09:02:07.436Z,98193.03
2023-04-17T09:04:43.200Z,98198.66
2023-04-17T09:07:15.704Z,98194.28
2023-04-17T09:09:51.181Z,98187.13
2023-04-17T09:12:19.991Z,98188.94
2023-04-17T09:14:47.460Z,98200.47
2023-04-17T09:17:17.584Z,98198.16
2023-04-17T09:20:04.739Z,98198.41
2023-04-17T09:22:32.503Z,98201.22
2023-04-17T09:25:00.058Z,98199.19
2023-04-17T09:27:28.634Z,98195.31
2023-04-17T09:29:57.119Z,98198.13
2023-04-17T09:32:24.789Z,98190.72
2023-04-17T09:34:53.416Z,98190.72
2023-04-17T09:37:23.384Z,98206.84
2023-04-17T09:39:59.362Z,98197.59
2023-04-17T09:42:29.042Z,98197.59
2023-04-17T09:44:58.388Z,98200.19
2023-04-17T09:47:25.568Z,98192.50
2023-04-17T09:49:53.113Z,98196.09
2023-04-17T09:52:23.874Z,98193.53
2023-04-17T09:54:53.964Z,98198.91
2023-04-17T09:57:21.436Z,98204.78
2023-04-17T09:59:49.402Z,98204.28
2023-04-17T10:02:19.183Z,98200.19
2023-04-17T10:04:47.926Z,98207.88
2023-04-17T10:07:16.825Z,98202.22
2023-04-17T10:09:47.449Z,98208.88
2023-04-17T10:12:18.004Z,98207.88
2023-04-17T10:14:51.524Z,98204.03
2023-04-17T10:17:31.996Z,98212.75
2023-04-17T10:20:20.466Z,98206.84
2023-04-17T10:22:54.615Z,98205.56
2023-04-17T10:25:23.061Z,98213.50
2023-04-17T10:27:52.507Z,98206.59
2023-04-17T10:30:23.215Z,98197.09
2023-04-17T10:33:22.160Z,98217.34
2023-04-17T10:35:49.532Z,98212.75
2023-04-17T10:38:17.820Z,98218.09
2023-04-17T10:40:45.317Z,98216.28
2023-04-17T10:43:20.530Z,98208.59
2023-04-17T10:46:03.711Z,98212.44
2023-04-17T10:48:46.542Z,98216.00
2023-04-17T10:51:29.503Z,98218.53
2023-04-17T10:54:03.452Z,98207.75
2023-04-17T10:56:42.714Z,98211.84
2023-04-17T10:59:14.328Z,98199.84
2023-04-17T11:01:52.496Z,98208.03
2023-04-17T11:04:21.729Z,98196.81
2023-04-17T11:06:49.468Z,98202.44
2023-04-17T11:09:16.841Z,98200.16
2023-04-17T11:11:45.190Z,98203.75
2023-04-17T11:14:17.870Z,98205.31
2023-04-17T11:16:47.061Z,98203.25
2023-04-17T11:19:23.188Z,98205.28
2023-04-17T11:21:55.331Z,98211.22
2023-04-17T11:24:34.861Z,98208.66
2023-04-17T11:27:02.331Z,98207.63
2023-04-17T11:29:29.921Z,98209.41
2023-04-17T11:31:58.973Z,98212.22
2023-04-17T11:34:27.161Z,98215.00
2023-04-17T11:36:59.826Z,98205.81
2023-04-17T11:39:33.433Z,98214.78
2023-04-17T11:42:03.564Z,98215.00
2023-04-17T11:44:30.843Z,98210.44
2023-04-17T11:47:01.725Z,98215.56
2023-04-17T11:49:30.509Z,98214.78
2023-04-17T11:52:00.878Z,98216.84
2023-04-17T11:54:39.373Z,98219.66
2023-04-17T11:57:13.079Z,98222.72
2023-04-17T11:59:42.407Z,98215.56
2023-04-17T12:02:09.952Z,98220.91
2023-04-17T12:04:38.166Z,98222.47
2023-04-17T12:07:07.137Z,98220.16
2023-04-17T12:09:35.716Z,98213.50
2023-04-17T12:12:08.267Z,98218.63
2023-04-17T12:14:36.486Z,98223.00
2023-04-17T12:17:06.574Z,98220.66
2023-04-17T12:19:34.055Z,98220.91
2023-04-17T12:22:01.116Z,98219.34
2023-04-17T12:24:28.194Z,98224.97
2023-04-17T12:26:55.215Z,98222.91
2023-04-17T12:29:32.738Z,98221.66
2023-04-17T12:32:11.069Z,98230.34
2023-04-17T12:34:38.783Z,98231.13
2023-04-17T12:37:05.914Z,98232.16
2023-04-17T12:39:33.051Z,98226.75
2023-04-17T12:41:59.994Z,98236.97
2023-04-17T12:44:28.614Z,98222.09
2023-04-17T12:46:56.026Z,98226.66
2023-04-17T12:49:24.279Z,98223.03
2023-04-17T12:51:51.697Z,98231.69
2023-04-17T12:54:19.393Z,98225.81
2023-04-17T12:56:46.408Z,98224.00
2023-04-17T12:59:13.373Z,98229.34
2023-04-17T13:01:40.497Z,98223.91
2023-04-17T13:04:07.996Z,98223.88
2023-04-17T13:06:35.171Z,98217.00
2023-04-17T13:09:02.228Z,98221.94
2023-04-17T13:11:29.296Z,98228.09
2023-04-17T13:13:56.767Z,98214.78
2023-04-17T13:16:24.107Z,98221.50
2023-04-17T13:18:51.116Z,98222.81
2023-04-17T13:21:18.103Z,98212.09
2023-04-17T13:23:45.091Z,98228.50
2023-04-17T13:26:12.142Z,98220.56
2023-04-17T13:28:40.129Z,98216.50
2023-04-17T13:31:07.342Z,98219.31
2023-04-17T13:33:34.892Z,98217.25
2023-04-17T13:36:01.818Z,98216.97
2023-04-17T13:38:30.689Z,98214.72
2023-04-17T13:41:00.039Z,98212.94
2023-04-17T13:43:27.126Z,98206.31
2023-04-17T13:45:55.655Z,98222.94
2023-04-17T13:48:22.757Z,98203.50
2023-04-17T13:50:49.760Z,98216.06
2023-04-17T13:53:16.749Z,98214.28
2023-04-17T13:55:43.723Z,98215.28
2023-04-17T13:58:11.084Z,98207.38
2023-04-17T14:00:38.112Z,98218.63
2023-04-17T14:03:05.592Z,98215.81
2023-04-17T14:05:32.817Z,98210.41
2023-04-17T14:07:59.887Z,98202.47
2023-04-17T14:10:27.145Z,98204.03
2023-04-17T14:12:54.253Z,98196.59
2023-04-17T14:15:21.612Z,98197.88
2023-04-17T14:17:48.746Z,98195.84
2023-04-17T14:20:17.702Z,98202.25
2023-04-17T14:22:45.010Z,98205.03
2023-04-17T14:25:13.374Z,98210.16
2023-04-17T14:27:42.232Z,98207.13
2023-04-17T14:30:09.638Z,98205.81
2023-04-17T14:32:39.272Z,98196.06
2023-04-17T14:35:07.549Z,98194.31
2023-04-17T14:37:34.904Z,98199.13
2023-04-17T14:40:01.904Z,98194.53
2023-04-17T14:42:28.959Z,98199.13
2023-04-17T14:44:55.974Z,98195.81
2023-04-17T14:47:24.423Z,98196.59
2023-04-17T14:49:52.118Z,98201.94
2023-04-17T14:52:19.113Z,98188.91
2023-04-17T14:54:46.104Z,98200.44
2023-04-17T14:57:13.320Z,98195.81
2023-04-17T14:59:40.738Z,98196.06
2023-04-17T15:02:07.910Z,98190.19
2023-04-17T15:04:35.297Z,98192.75
2023-04-17T15:07:05.097Z,98195.34
2023-04-17T15:09:32.761Z,98193.28
2023-04-17T15:12:01.108Z,98187.13
2023-04-17T15:14:30.194Z,98190.47
2023-04-17T15:16:58.960Z,98195.59
2023-04-17T15:19:26.178Z,98187.91
2023-04-17T15:21:53.463Z,98192.00
2023-04-17T15:24:20.339Z,98190.19
2023-04-17T15:26:47.538Z,98190.47
2023-04-17T15:29:14.975Z,98192.78
2023-04-17T15:31:42.136Z,98192.25
2023-04-17T15:34:09.553Z,98184.06
2023-04-17T15:36:36.552Z,98188.41
2023-04-17T15:39:04.300Z,98207.09
2023-04-17T15:41:32.820Z,98185.34
2023-04-17T15:44:01.169Z,98194.03
2023-04-17T15:46:31.956Z,98204.00
2023-04-17T15:49:08.211Z,98192.97
2023-04-17T15:51:38.041Z,98202.94
2023-04-17T15:54:06.098Z,98197.56
2023-04-17T15:56:34.864Z,98198.63
2023-04-17T15:59:03.351Z,98200.66
2023-04-17T16:01:30.623Z,98197.34
2023-04-17T16:03:57.873Z,98200.66
2023-04-17T16:06:26.049Z,98199.63
2023-04-17T16:08:53.028Z,98197.09
2023-04-17T16:11:20.156Z,98199.88
2023-04-17T16:13:47.103Z,98197.56
2023-04-17T16:16:14.140Z,98202.47
2023-04-17T16:18:42.509Z,98199.88
2023-04-17T16:21:12.361Z,98200.41
2023-04-17T16:23:40.526Z,98201.16
2023-04-17T16:26:08.400Z,98195.28
2023-04-17T16:28:35.529Z,98200.13
2023-04-17T16:31:02.714Z,98196.81
2023-04-17T16:33:29.844Z,98196.06
2023-04-17T16:35:57.693Z,98207.06
2023-04-17T16:38:24.827Z,98191.97
2023-04-17T16:40:54.050Z,98196.56
2023-04-17T16:43:22.277Z,98195.56
2023-04-17T16:45:50.455Z,98195.81
2023-04-17T16:48:18.232Z,98192.50
2023-04-17T16:50:45.806Z,98194.03
2023-04-17T16:53:13.800Z,98193.00
2023-04-17T16:55:42.486Z,98201.44
2023-04-17T16:58:10.971Z,98199.91
2023-04-17T17:00:39.165Z,98206.84
2023-04-17T17:03:06.289Z,98207.59
2023-04-17T17:05:33.543Z,98204.00
2023-04-17T17:08:00.893Z,98204.25
2023-04-17T17:10:28.961Z,98213.97
2023-04-17T17:12:56.833Z,98205.03
2023-04-17T17:15:24.243Z,98205.78
2023-04-17T17:17:51.409Z,98201.16
2023-04-17T17:20:20.589Z,98217.75
2023-04-17T17:22:47.655Z,98209.53
2023-04-17T17:25:14.718Z,98211.56
2023-04-17T17:27:43.089Z,98211.53
2023-04-17T17:30:10.973Z,98207.41
2023-04-17T17:32:38.874Z,98206.41
2023-04-17T17:35:06.320Z,98224.28
2023-04-17T17:37:33.295Z,98220.50
2023-04-17T17:40:00.941Z,98215.34
2023-04-17T17:42:31.116Z,98206.66
2023-04-17T17:44:59.375Z,98216.63
2023-04-17T17:47:26.517Z,98224.50
2023-04-17T17:49:54.176Z,98218.88
2023-04-17T17:52:21.724Z,98218.88
2023-04-17T17:54:49.439Z,98223.50
2023-04-17T17:57:16.406Z,98225.00
2023-04-17T17:59:43.399Z,98227.75
2023-04-17T18:02:11.459Z,98216.50
2023-04-17T18:04:38.847Z,98226.94
2023-04-17T18:07:05.880Z,98220.25
2023-04-17T18:09:33.150Z,98231.72
2023-04-17T18:12:02.203Z,98225.78
2023-04-17T18:14:31.538Z,98230.88
2023-04-17T18:16:58.534Z,98231.09
2023-04-17T18:19:25.985Z,98237.75
2023-04-17T18:21:52.931Z,98237.44
2023-04-17T18:24:19.873Z,98233.53
2023-04-17T18:26:47.932Z,98234.47
2023-04-17T18:29:16.675Z,98239.53
2023-04-17T18:31:43.742Z,98241.56
2023-04-17T18:34:10.845Z,98236.44
2023-04-17T18:36:39.038Z,98240.25
2023-04-17T18:39:06.117Z,98238.72
2023-04-17T18:41:34.941Z,98246.06
2023-04-17T18:44:03.299Z,98243.25
2023-04-17T18:46:31.025Z,98239.59
2023-04-17T18:48:58.640Z,98240.31
2023-04-17T18:51:26.612Z,98239.78
2023-04-17T18:53:55.095Z,98247.66
2023-04-17T18:56:24.235Z,98250.19
2023-04-17T18:58:51.551Z,98246.31
2023-04-17T19:01:18.622Z,98250.34
2023-04-17T19:03:46.404Z,98251.31
2023-04-17T19:06:13.452Z,98247.97
2023-04-17T19:08:42.328Z,98248.19
2023-04-17T19:11:09.314Z,98248.91
2023-04-17T19:13:36.438Z,98249.91
2023-04-17T19:16:03.397Z,98258.53
2023-04-17T19:18:31.147Z,98257.91
2023-04-17T19:20:58.054Z,98253.22
2023-04-17T19:23:26.547Z,98261.63
2023-04-17T19:25:56.791Z,98255.72
2023-04-17T19:28:24.701Z,98256.72
2023-04-17T19:30:53.398Z,98253.06
2023-04-17T19:33:20.889Z,98258.41
2023-04-17T19:35:47.885Z,98251.97
2023-04-17T19:38:16.931Z,98247.63
2023-04-17T19:41:07.410Z,98254.22
2023-04-17T19:43:34.394Z,98255.16
2023-04-17T19:46:01.792Z,98246.97
2023-04-17T19:48:29.073Z,98254.09
2023-04-17T19:50:56.106Z,98254.31
2023-04-17T19:53:23.310Z,98244.09
2023-04-17T19:55:50.349Z,98241.75
2023-04-17T19:58:17.251Z,98243.53
2023-04-17T20:00:44.556Z,98239.47
2023-04-17T20:03:11.651Z,98241.97
2023-04-17T20:05:38.754Z,98248.56
2023-04-17T20:08:09.400Z,98252.63
2023-04-17T20:10:36.992Z,98247.81
2023-04-17T20:13:03.961Z,98248.78
2023-04-17T20:15:32.329Z,98257.94
2023-04-17T20:18:15.121Z,98251.59
2023-04-17T20:20:42.387Z,98250.53
2023-04-17T20:23:10.985Z,98248.41
2023-04-17T20:25:38.888Z,98253.22
2023-04-17T20:28:07.455Z,98247.84
2023-04-17T20:30:38.048Z,98249.59
2023-04-17T20:33:05.500Z,98237.84
2023-04-17T20:35:32.529Z,98247.78
2023-04-17T20:37:59.788Z,98254.13
2023-04-17T20:40:27.357Z,98245.16
2023-04-17T20:42:55.655Z,98250.19
2023-04-17T20:45:22.749Z,98244.03
2023-04-17T20:47:55.942Z,98236.31
2023-04-17T20:50:26.623Z,98249.84
2023-04-17T20:52:53.554Z,98246.47
2023-04-17T20:55:22.072Z,98240.78
2023-04-17T20:57:49.925Z,98246.38
2023-04-17T21:00:17.987Z,98247.38
2023-04-17T21:02:46.100Z,98249.88
2023-04-17T21:05:15.508Z,98245.56
2023-04-17T21:07:42.949Z,98250.56
2023-04-17T21:10:12.081Z,98247.47
2023-04-17T21:12:40.058Z,98240.06
2023-04-17T21:15:08.230Z,98238.00
2023-04-17T21:17:36.235Z,98240.81
2023-04-17T21:20:07.018Z,98247.38
2023-04-17T21:22:34.149Z,98241.22
2023-04-17T21:25:03.345Z,98248.38
2023-04-17T21:27:31.127Z,98244.50
2023-04-17T21:29:59.977Z,98241.91
2023-04-17T21:32:27.360Z,98236.50
2023-04-17T21:34:56.039Z,98240.84
2023-04-17T21:37:23.388Z,98238.53
2023-04-17T21:39:51.995Z,98230.63
2023-04-17T21:42:20.252Z,98246.66
2023-04-17T21:44:49.845Z,98236.97
2023-04-17T21:47:17.070Z,98242.00
2023-04-17T21:49:49.214Z,98238.16
2023-04-17T21:52:17.158Z,98247.31
2023-04-17T21:54:44.363Z,98240.66
2023-04-17T21:57:14.889Z,98246.94
2023-04-17T21:59:42.897Z,98248.66
2023-04-17T22:02:10.013Z,98248.41
2023-04-17T22:04:37.104Z,98244.81
2023-04-17T22:07:05.228Z,98234.31
2023-04-17T22:09:34.492Z,98237.56
2023-04-17T22:12:15.154Z,98227.56
2023-04-17T22:14:45.000Z,98234.41
2023-04-17T22:17:13.369Z,98238.91
2023-04-17T22:19:42.993Z,98233.53
2023-04-17T22:22:13.014Z,98236.63
2023-04-17T22:24:41.777Z,98240.47
2023-04-17T22:27:09.102Z,98239.69
2023-04-17T22:29:36.932Z,98239.69
2023-04-17T22:32:04.020Z,98234.41
2023-04-17T22:34:31.754Z,98235.06
2023-04-17T22:36:58.744Z,98246.25
2023-04-17T22:39:29.276Z,98232.00
2023-04-17T22:41:56.866Z,98236.63
2023-04-17T22:44:24.148Z,98241.72
2023-04-17T22:46:51.127Z,98234.59
2023-04-17T22:49:20.020Z,98243.56
2023-04-17T22:51:49.380Z,98249.94
2023-04-17T22:54:22.880Z,98244.03
2023-04-17T22:56:50.276Z,98244.25
2023-04-17T22:59:17.712Z,98249.16
2023-04-17T23:01:46.301Z,98249.91
2023-04-17T23:04:15.072Z,98260.53
2023-04-17T23:06:44.764Z,98264.22
2023-04-17T23:09:12.530Z,98257.84
2023-04-17T23:11:41.343Z,98260.91
2023-04-17T23:14:09.470Z,98259.66
2023-04-17T23:16:36.929Z,98261.50
2023-04-17T23:19:06.438Z,98259.47
2023-04-17T23:21:33.827Z,98264.69
2023-04-17T23:24:03.488Z,98259.34
2023-04-17T23:26:30.495Z,98261.69
2023-04-17T23:28:58.718Z,98254.38
2023-04-17T23:31:27.060Z,98251.28
2023-04-17T23:33:58.319Z,98262.47
2023-04-17T23:36:27.384Z,98253.78
2023-04-17T23:38:55.991Z,98250.09
2023-04-17T23:41:25.933Z,98250.53
2023-04-17T23:43:54.216Z,98248.78
2023-04-17T23:46:21.927Z,98242.41
2023-04-17T23:48:51.025Z,98247.78
2023-04-17T23:51:18.460Z,98238.81
2023-04-17T23:53:45.979Z,98235.28
2023-04-17T23:56:14.367Z,98238.34
2023-04-17T23:58:43.304Z,98239.69
